Time;durP1;ratioP1;P1;durP2;ratioP2;P2;SDS_P1;SDS_P2;PMS_P1;PMS_P2;Temp;Humidity;BMP_temperature;BMP_pressure;BME280_temperature;BME280_humidity;BME280_pressure;Samples;Min_cycle;Max_cycle;Signal;HPM_P1;HPM_P2
2022/10/15 00:00:39;;;;;;;23.83;18.87;;;13.80;1.00;;;;;;5006250;28;20467;-77
2022/10/15 00:03:07;;;;;;;23.87;20.87;;;13.90;1.00;;;;;;4993634;28;20467;-79
2022/10/15 00:05:37;;;;;;;26.53;20.23;;;13.90;1.00;;;;;;5000918;28;20474;-79
2022/10/15 00:08:05;;;;;;;30.80;24.80;;;13.90;1.00;;;;;;5007815;28;21403;-78
2022/10/15 00:10:32;;;;;;;27.90;21.53;;;13.90;1.00;;;;;;5006787;28;20536;-77
2022/10/15 00:12:59;;;;;;;26.77;21.43;;;13.80;1.00;;;;;;5007380;28;20619;-80
2022/10/15 00:15:26;;;;;;;24.30;21.60;;;13.80;1.00;;;;;;5006322;28;20466;-79
2022/10/15 00:17:53;;;;;;;24.90;20.80;;;13.80;1.00;;;;;;5006355;28;20473;-78
2022/10/15 00:20:25;;;;;;;25.80;21.53;;;13.70;1.00;;;;;;5005204;28;20478;-78
2022/10/15 00:22:54;;;;;;;28.07;23.40;;;13.70;1.00;;;;;;5005356;28;20541;-80
2022/10/15 00:25:20;;;;;;;26.23;23.27;;;13.60;1.00;;;;;;5002084;28;20470;-79
2022/10/15 00:27:47;;;;;;;24.87;22.17;;;13.50;1.00;;;;;;5005326;28;20517;-79
2022/10/15 00:30:14;;;;;;;30.50;22.03;;;13.50;1.00;;;;;;5002620;28;20466;-78
2022/10/15 00:32:43;;;;;;;24.80;22.07;;;13.50;1.00;;;;;;5005520;28;20472;-79
2022/10/15 00:35:10;;;;;;;26.07;21.67;;;13.50;1.00;;;;;;5003657;28;20848;-78
2022/10/15 00:37:38;;;;;;;26.90;20.77;;;13.50;1.00;;;;;;5006609;28;20484;-79
2022/10/15 00:40:07;;;;;;;25.20;22.17;;;13.50;1.00;;;;;;5003621;28;20469;-78
2022/10/15 00:42:34;;;;;;;25.73;21.17;;;13.50;1.00;;;;;;5004575;28;21030;-79
2022/10/15 00:45:01;;;;;;;28.23;22.27;;;13.50;1.00;;;;;;5001108;28;20513;-78
2022/10/15 00:47:33;;;;;;;26.90;21.60;;;13.60;1.00;;;;;;5003374;28;20478;-79
2022/10/15 00:50:07;;;;;;;29.17;21.63;;;13.60;1.00;;;;;;4991935;28;21092;-78
2022/10/15 00:52:45;;;;;;;24.23;20.00;;;13.60;1.00;;;;;;4993293;28;20450;-78
2022/10/15 00:55:17;;;;;;;26.27;21.07;;;13.60;1.00;;;;;;5009475;28;20438;-79
2022/10/15 00:57:46;;;;;;;28.20;22.13;;;13.60;1.00;;;;;;5006693;28;20477;-79
2022/10/15 01:00:15;;;;;;;26.47;21.30;;;13.60;1.00;;;;;;5005907;28;20541;-81
2022/10/15 01:02:42;;;;;;;25.13;20.70;;;13.50;1.00;;;;;;5006608;28;20466;-79
2022/10/15 01:05:09;;;;;;;27.90;21.30;;;13.50;1.00;;;;;;5010147;28;20454;-78
2022/10/15 01:07:36;;;;;;;27.30;20.53;;;13.50;1.00;;;;;;5008638;28;20511;-77
2022/10/15 01:10:06;;;;;;;26.90;21.47;;;13.50;1.00;;;;;;5005565;28;20455;-79
2022/10/15 01:12:45;;;;;;;25.67;20.97;;;13.50;1.00;;;;;;5009028;28;20997;-78
2022/10/15 01:15:20;;;;;;;27.57;21.93;;;13.40;1.00;;;;;;5006646;28;20469;-78
2022/10/15 01:17:51;;;;;;;31.03;22.07;;;13.40;1.00;;;;;;5007266;28;20489;-81
2022/10/15 01:20:53;;;;;;;27.87;21.33;;;13.40;1.00;;;;;;5004239;28;20471;-78
2022/10/15 01:24:15;;;;;;;26.30;21.17;;;13.40;1.00;;;;;;5003855;28;20451;-79
2022/10/15 01:27:19;;;;;;;27.20;22.10;;;13.50;1.00;;;;;;5002734;28;20446;-79
2022/10/15 01:30:16;;;;;;;26.70;21.50;;;13.50;1.00;;;;;;5006269;28;20988;-79
2022/10/15 01:32:54;;;;;;;28.67;21.37;;;13.40;1.00;;;;;;5000721;28;20473;-79
2022/10/15 01:35:30;;;;;;;28.23;21.10;;;13.50;1.00;;;;;;5002039;28;20579;-79
2022/10/15 01:38:05;;;;;;;24.07;20.67;;;13.50;1.00;;;;;;5007423;28;20480;-78
2022/10/15 01:40:38;;;;;;;25.90;21.53;;;13.50;1.00;;;;;;5006367;28;20574;-78
2022/10/15 01:43:11;;;;;;;26.50;20.90;;;13.60;1.00;;;;;;5005717;28;20446;-79
2022/10/15 01:45:42;;;;;;;28.60;22.77;;;13.70;1.00;;;;;;5006031;28;20476;-79
2022/10/15 01:48:11;;;;;;;24.97;21.53;;;13.70;1.00;;;;;;5007196;28;20552;-79
2022/10/15 01:50:42;;;;;;;28.10;21.43;;;13.70;1.00;;;;;;5002007;28;20481;-79
2022/10/15 01:53:14;;;;;;;31.27;23.60;;;13.70;1.00;;;;;;5003946;28;20457;-78
2022/10/15 01:55:44;;;;;;;28.27;21.97;;;13.80;1.00;;;;;;5003306;28;20543;-79
2022/10/15 01:58:12;;;;;;;32.90;22.93;;;13.70;1.00;;;;;;5004428;28;20423;-79
2022/10/15 02:00:42;;;;;;;27.03;21.43;;;13.80;1.00;;;;;;5006009;28;20474;-79
2022/10/15 02:03:09;;;;;;;29.30;23.23;;;13.80;1.00;;;;;;5005374;28;20465;-79
2022/10/15 02:05:45;;;;;;;27.57;22.13;;;13.80;1.00;;;;;;5006272;28;20898;-80
2022/10/15 02:08:23;;;;;;;28.17;22.30;;;13.70;1.00;;;;;;5007957;28;20481;-79
2022/10/15 02:10:58;;;;;;;31.67;22.70;;;13.70;1.00;;;;;;5009715;28;20482;-79
2022/10/15 02:13:33;;;;;;;30.50;21.40;;;13.60;1.00;;;;;;5008717;28;20481;-79
2022/10/15 02:16:08;;;;;;;29.93;21.60;;;13.60;1.00;;;;;;5008705;28;20457;-79
2022/10/15 02:18:40;;;;;;;29.30;22.77;;;13.60;1.00;;;;;;5006933;28;21651;-79
2022/10/15 02:21:11;;;;;;;27.93;22.10;;;13.60;1.00;;;;;;5003638;28;20462;-80
2022/10/15 02:23:46;;;;;;;32.90;23.87;;;13.60;1.00;;;;;;5005603;28;20803;-78
2022/10/15 02:26:15;;;;;;;28.57;23.53;;;13.60;1.00;;;;;;5006168;28;20564;-79
2022/10/15 02:28:45;;;;;;;32.57;23.63;;;13.60;1.00;;;;;;5004752;28;20458;-79
2022/10/15 02:31:16;;;;;;;33.67;22.77;;;13.50;1.00;;;;;;5007290;28;20931;-80
2022/10/15 02:33:44;;;;;;;28.90;21.50;;;13.60;1.00;;;;;;4999998;28;20482;-79
2022/10/15 02:36:11;;;;;;;29.83;21.90;;;13.60;1.00;;;;;;5004024;28;21007;-79
2022/10/15 02:38:42;;;;;;;29.77;22.67;;;13.60;1.00;;;;;;5004694;28;20564;-79
2022/10/15 02:41:10;;;;;;;29.77;22.57;;;13.60;1.00;;;;;;5009090;28;20981;-79
2022/10/15 02:43:39;;;;;;;26.37;21.20;;;13.60;1.00;;;;;;5002489;28;20548;-78
2022/10/15 02:46:09;;;;;;;25.23;20.83;;;13.60;1.00;;;;;;5001450;28;20908;-79
2022/10/15 02:48:37;;;;;;;27.27;21.40;;;13.60;1.00;;;;;;4998674;28;20471;-80
2022/10/15 02:51:04;;;;;;;31.60;22.00;;;13.60;1.00;;;;;;5006358;28;20477;-78
2022/10/15 02:53:31;;;;;;;29.90;22.20;;;13.60;1.00;;;;;;5006304;28;20536;-79
2022/10/15 02:55:57;;;;;;;26.80;21.20;;;13.60;1.00;;;;;;5019085;28;20932;-78
2022/10/15 02:58:24;;;;;;;28.07;21.80;;;13.60;1.00;;;;;;5019541;28;20836;-80
2022/10/15 03:00:51;;;;;;;29.53;21.13;;;13.70;1.00;;;;;;5023137;28;21030;-80
2022/10/15 03:03:18;;;;;;;28.53;21.30;;;13.70;1.00;;;;;;5019642;28;20458;-79
2022/10/15 03:05:46;;;;;;;29.63;21.93;;;13.80;1.00;;;;;;5020911;28;20464;-78
2022/10/15 03:08:15;;;;;;;25.30;20.00;;;13.90;1.00;;;;;;5006855;28;21043;-78
2022/10/15 03:10:44;;;;;;;27.80;20.90;;;13.90;1.00;;;;;;5020339;28;21428;-79
2022/10/15 03:13:11;;;;;;;25.57;20.77;;;14.00;1.00;;;;;;5018369;28;20458;-78
2022/10/15 03:15:38;;;;;;;31.80;22.83;;;13.90;1.00;;;;;;5023989;28;20460;-78
2022/10/15 03:18:06;;;;;;;28.43;22.40;;;13.90;1.00;;;;;;5020497;28;20442;-79
2022/10/15 03:20:32;;;;;;;29.07;21.50;;;13.90;1.00;;;;;;5019761;28;20492;-80
2022/10/15 03:23:00;;;;;;;27.30;22.77;;;13.90;1.00;;;;;;5021764;28;20512;-79
2022/10/15 03:25:27;;;;;;;30.87;22.67;;;13.90;1.00;;;;;;5025310;28;20933;-78
2022/10/15 03:27:55;;;;;;;28.70;23.20;;;13.90;1.00;;;;;;5021442;28;20859;-79
2022/10/15 03:30:22;;;;;;;29.37;21.87;;;13.90;1.00;;;;;;5025492;28;20615;-79
2022/10/15 03:32:50;;;;;;;27.00;20.83;;;13.80;1.00;;;;;;5020800;28;20983;-79
2022/10/15 03:35:17;;;;;;;27.77;20.63;;;13.80;1.00;;;;;;5022542;28;20465;-78
2022/10/15 03:37:46;;;;;;;29.40;22.30;;;13.80;1.00;;;;;;5022420;28;20477;-78
2022/10/15 03:40:14;;;;;;;31.37;21.77;;;13.70;1.00;;;;;;5027533;28;20569;-79
2022/10/15 03:42:43;;;;;;;28.20;22.60;;;13.70;1.00;;;;;;5023448;28;20473;-78
2022/10/15 03:45:10;;;;;;;31.10;24.50;;;13.60;1.00;;;;;;5031508;28;20545;-78
2022/10/15 03:47:37;;;;;;;29.50;21.40;;;13.60;1.00;;;;;;5027153;28;21036;-78
2022/10/15 03:50:04;;;;;;;29.10;23.80;;;13.60;1.00;;;;;;5023708;28;20492;-78
2022/10/15 03:52:31;;;;;;;29.10;23.10;;;13.60;1.00;;;;;;5026942;28;20976;-79
2022/10/15 03:54:57;;;;;;;30.27;22.73;;;13.60;1.00;;;;;;5006047;28;20438;-80
2022/10/15 03:57:26;;;;;;;29.70;22.70;;;13.70;1.00;;;;;;5005797;28;20458;-78
2022/10/15 03:59:55;;;;;;;29.03;22.37;;;13.70;1.00;;;;;;5003625;28;20488;-79
2022/10/15 04:02:22;;;;;;;28.87;22.93;;;13.70;1.00;;;;;;5006308;28;20466;-79
2022/10/15 04:04:51;;;;;;;29.13;22.70;;;13.70;1.00;;;;;;4997668;28;21354;-79
2022/10/15 04:07:18;;;;;;;27.73;21.67;;;13.70;1.00;;;;;;5005477;28;20914;-79
2022/10/15 04:09:46;;;;;;;27.40;21.90;;;13.70;1.00;;;;;;5005761;28;21326;-78
2022/10/15 04:12:13;;;;;;;28.90;21.40;;;13.80;1.00;;;;;;5007172;28;20481;-79
2022/10/15 04:14:43;;;;;;;28.93;23.33;;;13.80;1.00;;;;;;5008063;28;20474;-79
2022/10/15 04:17:10;;;;;;;32.20;23.40;;;13.80;1.00;;;;;;5006738;28;20473;-79
2022/10/15 04:19:37;;;;;;;31.40;23.00;;;13.80;1.00;;;;;;5006648;28;20969;-80
2022/10/15 04:22:04;;;;;;;32.87;22.70;;;13.90;1.00;;;;;;5006510;28;20454;-79
2022/10/15 04:24:33;;;;;;;31.30;22.97;;;13.90;1.00;;;;;;5003806;28;20492;-78
2022/10/15 04:27:00;;;;;;;28.10;22.30;;;13.90;1.00;;;;;;5005585;28;20466;-78
2022/10/15 04:29:27;;;;;;;28.50;21.87;;;13.80;1.00;;;;;;5004664;28;20504;-78
2022/10/15 04:31:55;;;;;;;31.07;22.27;;;13.80;1.00;;;;;;5005133;28;20481;-78
2022/10/15 04:34:23;;;;;;;30.10;23.00;;;13.80;1.00;;;;;;5004815;28;20461;-78
2022/10/15 04:36:50;;;;;;;25.50;20.50;;;13.80;1.00;;;;;;5002944;28;20470;-79
2022/10/15 04:39:16;;;;;;;29.30;21.80;;;13.80;1.00;;;;;;5002821;28;20564;-78
2022/10/15 04:41:43;;;;;;;27.03;21.13;;;13.70;1.00;;;;;;5008099;28;20525;-80
2022/10/15 04:44:10;;;;;;;26.63;20.77;;;13.70;1.00;;;;;;5003077;28;20491;-79
2022/10/15 04:46:37;;;;;;;30.17;21.83;;;13.70;1.00;;;;;;5009191;28;20545;-79
2022/10/15 04:49:05;;;;;;;28.17;21.43;;;13.80;1.00;;;;;;5014776;28;21299;-76
2022/10/15 04:51:36;;;;;;;26.93;22.23;;;13.80;1.00;;;;;;5010588;28;20419;-79
2022/10/15 04:54:05;;;;;;;28.27;21.37;;;13.80;1.00;;;;;;5013515;28;20467;-79
2022/10/15 04:56:43;;;;;;;32.97;22.33;;;13.90;1.00;;;;;;5010231;28;20454;-78
2022/10/15 04:59:12;;;;;;;28.43;22.57;;;13.90;1.00;;;;;;5008259;28;20477;-78
2022/10/15 05:01:39;;;;;;;25.93;21.60;;;13.90;1.00;;;;;;5010753;28;20470;-77
2022/10/15 05:04:15;;;;;;;29.83;22.03;;;14.00;1.00;;;;;;5007937;28;20458;-76
2022/10/15 05:06:44;;;;;;;26.90;20.10;;;14.00;1.00;;;;;;5010640;28;20461;-78
2022/10/15 05:09:16;;;;;;;27.37;21.07;;;14.00;1.00;;;;;;5013785;28;20475;-79
2022/10/15 05:11:45;;;;;;;25.37;19.97;;;14.10;1.00;;;;;;5009631;28;20466;-79
2022/10/15 05:14:16;;;;;;;25.93;20.33;;;14.10;1.00;;;;;;5013782;28;20476;-77
2022/10/15 05:16:44;;;;;;;27.63;19.93;;;14.10;1.00;;;;;;5007499;28;20469;-77
2022/10/15 05:19:15;;;;;;;27.60;21.13;;;14.20;1.00;;;;;;5013988;28;20430;-77
2022/10/15 05:21:45;;;;;;;24.23;18.70;;;14.20;1.00;;;;;;5010143;28;20469;-79
2022/10/15 05:24:14;;;;;;;26.80;20.67;;;14.20;1.00;;;;;;5012513;28;20445;-79
2022/10/15 05:26:41;;;;;;;26.10;20.40;;;14.20;1.00;;;;;;5005768;28;20461;-79
2022/10/15 05:29:09;;;;;;;26.83;19.80;;;14.20;1.00;;;;;;5002144;28;20470;-78
2022/10/15 05:31:37;;;;;;;25.43;21.00;;;14.20;1.00;;;;;;5003199;28;20473;-81
2022/10/15 05:34:07;;;;;;;22.43;17.87;;;14.20;1.00;;;;;;5004765;28;20564;-79
2022/10/15 05:36:36;;;;;;;26.30;19.47;;;14.20;1.00;;;;;;5000105;28;20498;-80
2022/10/15 05:39:09;;;;;;;24.47;19.50;;;14.20;1.00;;;;;;5001463;28;20991;-80
2022/10/15 05:41:36;;;;;;;22.60;18.87;;;14.20;1.00;;;;;;5002187;28;20470;-78
2022/10/15 05:44:03;;;;;;;25.70;20.03;;;14.40;1.00;;;;;;5004516;28;20454;-79
2022/10/15 05:46:30;;;;;;;23.50;19.60;;;14.30;1.00;;;;;;5008444;28;20474;-79
2022/10/15 05:48:58;;;;;;;24.07;19.77;;;14.30;1.00;;;;;;5003060;28;20477;-79
2022/10/15 05:51:27;;;;;;;23.27;17.73;;;14.30;1.00;;;;;;4989413;28;20473;-79
2022/10/15 05:53:56;;;;;;;22.57;19.60;;;14.30;1.00;;;;;;5007550;28;20498;-79
2022/10/15 05:56:23;;;;;;;25.07;19.13;;;14.30;1.00;;;;;;5010860;28;21045;-79
2022/10/15 05:58:50;;;;;;;22.27;18.53;;;14.30;1.00;;;;;;5001592;28;20478;-79
2022/10/15 06:01:17;;;;;;;21.80;17.63;;;14.30;1.00;;;;;;5001931;28;20477;-79
2022/10/15 06:03:47;;;;;;;25.20;19.30;;;14.30;1.00;;;;;;5003888;28;20474;-80
2022/10/15 06:06:15;;;;;;;22.23;17.97;;;14.30;1.00;;;;;;5003986;28;20497;-80
2022/10/15 06:08:42;;;;;;;25.23;19.60;;;14.40;1.00;;;;;;5002576;28;20477;-80
2022/10/15 06:11:10;;;;;;;20.43;17.50;;;14.40;1.00;;;;;;5006460;28;20988;-79
2022/10/15 06:13:39;;;;;;;20.00;16.87;;;14.40;1.00;;;;;;5005351;28;20477;-78
2022/10/15 06:16:06;;;;;;;20.03;16.30;;;14.50;1.00;;;;;;5005313;28;20463;-79
2022/10/15 06:18:33;;;;;;;21.90;17.57;;;14.60;1.00;;;;;;5006624;28;20456;-79
2022/10/15 06:21:01;;;;;;;22.23;18.17;;;14.60;1.00;;;;;;5002173;28;20509;-78
2022/10/15 06:23:28;;;;;;;20.83;17.30;;;14.60;1.00;;;;;;4998199;28;21203;-79
2022/10/15 06:25:55;;;;;;;20.50;16.33;;;14.70;1.00;;;;;;5001169;28;20470;-79
2022/10/15 06:28:25;;;;;;;19.07;15.80;;;14.60;1.00;;;;;;5005784;28;20474;-79
2022/10/15 06:30:51;;;;;;;19.50;16.10;;;14.60;1.00;;;;;;5005384;28;20994;-80
2022/10/15 06:33:19;;;;;;;20.53;16.30;;;14.60;1.00;;;;;;5007592;28;20480;-80
2022/10/15 06:35:47;;;;;;;21.87;17.37;;;14.70;1.00;;;;;;5006869;28;20557;-79
2022/10/15 06:38:14;;;;;;;18.67;16.37;;;14.80;1.00;;;;;;5004345;28;20480;-79
2022/10/15 06:40:41;;;;;;;20.47;15.93;;;14.90;1.00;;;;;;5003154;28;20891;-79
2022/10/15 06:43:12;;;;;;;19.40;16.47;;;14.90;1.00;;;;;;5003477;28;20485;-79
2022/10/15 06:45:42;;;;;;;20.23;17.07;;;15.00;1.00;;;;;;5006305;28;20554;-80
2022/10/15 06:48:09;;;;;;;19.43;16.37;;;15.00;1.00;;;;;;5004913;28;20478;-79
2022/10/15 06:50:38;;;;;;;20.30;16.50;;;15.00;1.00;;;;;;5005937;28;20454;-79
2022/10/15 06:53:06;;;;;;;18.60;15.03;;;15.00;1.00;;;;;;5004405;28;21034;-80
2022/10/15 06:55:34;;;;;;;21.00;17.00;;;15.00;1.00;;;;;;5026826;28;20460;-80
2022/10/15 06:58:00;;;;;;;17.90;14.77;;;15.00;1.00;;;;;;5028661;28;20435;-81
2022/10/15 07:00:28;;;;;;;18.87;16.27;;;14.90;1.00;;;;;;5026011;28;20472;-81
2022/10/15 07:02:56;;;;;;;19.63;15.50;;;15.00;1.00;;;;;;5025084;28;20561;-82
2022/10/15 07:05:23;;;;;;;21.57;15.93;;;15.00;1.00;;;;;;5028594;28;20885;-79
2022/10/15 07:07:54;;;;;;;19.93;16.27;;;15.00;1.00;;;;;;5025916;28;20560;-78
2022/10/15 07:10:21;;;;;;;19.80;15.70;;;15.00;1.00;;;;;;5021579;28;20453;-77
2022/10/15 07:12:48;;;;;;;18.73;16.73;;;14.90;1.00;;;;;;5025730;28;20560;-79
2022/10/15 07:15:15;;;;;;;17.97;14.63;;;14.90;1.00;;;;;;5022306;28;21287;-79
2022/10/15 07:17:48;;;;;;;18.80;15.50;;;14.90;1.00;;;;;;5023868;28;20605;-80
2022/10/15 07:20:23;;;;;;;21.03;16.47;;;15.00;1.00;;;;;;5033637;28;20540;-78
2022/10/15 07:22:55;;;;;;;20.70;17.33;;;15.10;1.00;;;;;;5031206;28;20500;-78
2022/10/15 07:25:23;;;;;;;20.43;15.97;;;15.40;1.00;;;;;;5028062;28;20499;-79
2022/10/15 07:27:51;;;;;;;17.90;14.50;;;15.50;1.00;;;;;;5027460;28;20524;-78
2022/10/15 07:30:20;;;;;;;20.47;15.70;;;15.70;1.00;;;;;;5029671;28;20536;-79
2022/10/15 07:32:52;;;;;;;20.17;15.43;;;15.70;1.00;;;;;;5034505;28;21191;-79
2022/10/15 07:35:22;;;;;;;17.00;14.60;;;15.70;1.00;;;;;;5009315;28;21368;-79
2022/10/15 07:37:52;;;;;;;19.20;15.20;;;15.80;1.00;;;;;;5031539;28;20453;-78
2022/10/15 07:40:24;;;;;;;16.97;13.97;;;15.80;1.00;;;;;;5037118;28;20414;-78
2022/10/15 07:42:54;;;;;;;16.87;14.17;;;16.00;1.00;;;;;;4997552;28;20438;-78
2022/10/15 07:45:24;;;;;;;17.50;14.07;;;16.20;1.00;;;;;;5034083;28;20437;-79
2022/10/15 07:47:52;;;;;;;19.07;14.43;;;16.40;1.00;;;;;;5035499;28;20460;-80
2022/10/15 07:50:21;;;;;;;17.83;14.67;;;16.50;1.00;;;;;;5026320;28;20461;-74
2022/10/15 07:52:51;;;;;;;17.30;13.20;;;16.70;1.00;;;;;;5018308;28;20441;-77
2022/10/15 07:55:22;;;;;;;18.00;13.90;;;16.80;1.00;;;;;;5008044;28;20404;-78
2022/10/15 07:57:52;;;;;;;19.50;14.33;;;16.70;1.00;;;;;;4996722;28;21111;-78
2022/10/15 08:00:23;;;;;;;20.17;15.70;;;16.60;1.00;;;;;;5000492;28;20446;-79
2022/10/15 08:02:56;;;;;;;15.63;13.17;;;16.60;1.00;;;;;;5012211;28;20466;-77
2022/10/15 08:05:26;;;;;;;15.50;13.10;;;16.70;1.00;;;;;;4987258;28;20477;-77
2022/10/15 08:07:54;;;;;;;15.23;11.73;;;16.70;1.00;;;;;;5009373;28;20476;-78
2022/10/15 08:10:24;;;;;;;14.67;12.23;;;16.80;1.00;;;;;;4988543;28;20476;-78
2022/10/15 08:12:52;;;;;;;15.10;12.43;;;16.90;1.00;;;;;;4985741;28;20883;-78
2022/10/15 08:15:26;;;;;;;15.90;12.37;;;17.00;1.00;;;;;;5001362;28;20458;-79
2022/10/15 08:17:58;;;;;;;13.20;11.00;;;17.00;1.00;;;;;;5016641;28;20531;-79
2022/10/15 08:20:28;;;;;;;13.70;10.50;;;17.10;1.00;;;;;;4984461;28;20450;-78
2022/10/15 08:23:01;;;;;;;16.73;12.00;;;17.20;1.00;;;;;;5015515;28;20489;-78
2022/10/15 08:25:43;;;;;;;15.50;11.80;;;17.50;1.00;;;;;;5010349;28;20490;-78
2022/10/15 08:28:14;;;;;;;13.83;11.27;;;17.90;1.00;;;;;;5011787;28;21524;-77
2022/10/15 08:30:41;;;;;;;13.77;11.20;;;18.30;1.00;;;;;;5015929;28;20430;-78
2022/10/15 08:33:14;;;;;;;14.43;11.17;;;18.70;1.00;;;;;;5007487;28;20430;-79
2022/10/15 08:35:43;;;;;;;12.37;10.03;;;19.40;1.00;;;;;;5014931;28;20416;-80
2022/10/15 08:38:11;;;;;;;14.10;10.53;;;19.90;1.00;;;;;;5017709;28;20489;-79
2022/10/15 08:40:45;;;;;;;13.40;10.13;;;20.50;1.00;;;;;;5014965;28;20413;-78
2022/10/15 08:43:21;;;;;;;12.63;10.20;;;20.50;1.00;;;;;;5020731;28;21777;-81
2022/10/15 08:45:53;;;;;;;10.90;9.10;;;20.40;1.00;;;;;;5017352;28;20450;-79
2022/10/15 08:48:31;;;;;;;13.87;10.23;;;20.40;1.00;;;;;;5012878;28;20450;-80
2022/10/15 08:51:10;;;;;;;13.00;9.83;;;20.20;1.00;;;;;;5004676;28;20567;-81
2022/10/15 08:53:42;;;;;;;16.10;11.60;;;19.90;1.00;;;;;;5015716;28;20427;-80
2022/10/15 08:56:28;;;;;;;14.17;10.40;;;19.70;1.00;;;;;;5016003;28;20450;-80
2022/10/15 08:59:07;;;;;;;13.63;10.60;;;19.30;1.00;;;;;;4982122;28;20496;-81
2022/10/15 09:01:42;;;;;;;12.80;9.43;;;19.10;1.00;;;;;;5015465;28;20463;-81
2022/10/15 09:04:22;;;;;;;11.50;9.20;;;18.80;1.00;;;;;;4999961;28;20479;-81
2022/10/15 09:07:06;;;;;;;14.40;10.40;;;18.70;1.00;;;;;;5006171;28;20437;-76
2022/10/15 09:09:47;;;;;;;13.20;10.23;;;18.60;1.00;;;;;;5008501;28;20473;-81
2022/10/15 09:12:33;;;;;;;14.87;10.70;;;18.60;1.00;;;;;;5005087;28;20631;-81
2022/10/15 09:15:01;;;;;;;23.53;16.90;;;18.50;1.00;;;;;;5015118;28;20450;-81
2022/10/15 09:17:35;;;;;;;16.33;9.63;;;18.50;1.00;;;;;;5004616;28;20455;-79
2022/10/15 09:20:15;;;;;;;14.67;10.20;;;18.60;1.00;;;;;;5000743;28;20478;-78
2022/10/15 09:22:53;;;;;;;;;;;;;;;;;;;;;
2022/10/15 09:25:28;;;;;;;12.30;9.83;;;18.60;1.00;;;;;;4970902;28;39842;-80
2022/10/15 09:28:18;;;;;;;13.57;11.20;;;18.60;1.00;;;;;;4992061;28;20426;-80
2022/10/15 09:31:01;;;;;;;11.60;9.93;;;18.60;1.00;;;;;;4996564;28;20442;-79
2022/10/15 09:33:58;;;;;;;12.10;9.30;;;18.70;1.00;;;;;;4989819;28;20454;-79
2022/10/15 09:36:48;;;;;;;12.17;10.13;;;18.90;1.00;;;;;;5014223;28;20432;-79
2022/10/15 09:39:49;;;;;;;13.73;10.83;;;19.10;1.00;;;;;;4980474;28;20432;-79
2022/10/15 09:42:29;;;;;;;16.10;13.20;;;19.40;1.00;;;;;;5009295;28;20546;-76
2022/10/15 09:45:10;;;;;;;12.30;8.57;;;19.60;1.00;;;;;;4997763;28;20458;-78
2022/10/15 09:47:48;;;;;;;19.27;12.40;;;19.80;1.00;;;;;;5013406;28;20438;-80
2022/10/15 09:50:18;;;;;;;13.63;10.17;;;20.20;1.00;;;;;;5003785;28;20411;-78
2022/10/15 09:53:08;;;;;;;11.83;9.47;;;20.60;1.00;;;;;;5007828;28;20450;-80
2022/10/15 09:55:46;;;;;;;13.03;9.90;;;21.10;1.00;;;;;;5023561;28;20509;-78
2022/10/15 09:58:21;;;;;;;13.50;10.40;;;21.20;1.00;;;;;;5005126;28;20422;-79
2022/10/15 10:01:07;;;;;;;14.13;12.63;;;21.10;1.00;;;;;;5037345;28;20445;-79
2022/10/15 10:03:39;;;;;;;13.00;10.30;;;20.90;1.00;;;;;;5011611;28;20472;-77
2022/10/15 10:06:12;;;;;;;18.20;11.50;;;20.70;1.00;;;;;;5036278;28;20513;-77
2022/10/15 10:08:47;;;;;;;13.00;9.50;;;20.50;1.00;;;;;;5035314;28;20524;-79
2022/10/15 10:11:16;;;;;;;17.27;10.70;;;20.30;1.00;;;;;;5034526;28;20417;-77
2022/10/15 10:13:57;;;;;;;15.77;11.03;;;20.20;1.00;;;;;;5033113;28;20958;-77
2022/10/15 10:16:36;;;;;;;13.93;10.30;;;20.00;1.00;;;;;;5028105;28;20457;-79
2022/10/15 10:19:18;;;;;;;11.80;8.63;;;19.90;1.00;;;;;;5030076;28;20848;-78
2022/10/15 10:21:46;;;;;;;13.70;10.30;;;19.80;1.00;;;;;;5033651;28;20488;-76
2022/10/15 10:24:31;;;;;;;13.90;11.10;;;19.90;1.00;;;;;;5034124;28;20462;-77
2022/10/15 10:27:03;;;;;;;12.47;9.47;;;20.00;1.00;;;;;;5028584;28;20410;-76
2022/10/15 10:29:39;;;;;;;15.40;12.50;;;20.10;1.00;;;;;;5025169;28;21046;-76
2022/10/15 10:32:19;;;;;;;13.80;9.20;;;20.30;1.00;;;;;;4996201;28;20440;-79
2022/10/15 10:35:19;;;;;;;10.40;8.03;;;20.40;1.00;;;;;;5012784;28;20460;-78
2022/10/15 10:37:50;;;;;;;9.87;7.77;;;20.70;1.00;;;;;;4985098;28;20418;-80
2022/10/15 10:40:31;;;;;;;9.70;7.10;;;20.90;1.00;;;;;;4996067;28;20504;-80
2022/10/15 10:43:22;;;;;;;9.10;6.50;;;21.20;1.00;;;;;;5025610;28;20434;-81
2022/10/15 10:46:11;;;;;;;10.80;6.80;;;21.70;1.00;;;;;;4991535;28;20469;-80
2022/10/15 10:48:51;;;;;;;10.70;6.83;;;21.90;1.00;;;;;;5018898;28;20422;-79
2022/10/15 10:51:20;;;;;;;10.10;7.30;;;21.90;1.00;;;;;;5017699;28;20466;-79
2022/10/15 10:53:53;;;;;;;10.00;6.80;;;21.90;1.00;;;;;;5031963;28;20434;-80
2022/10/15 10:56:27;;;;;;;9.20;6.30;;;22.10;1.00;;;;;;5022164;28;20572;-80
2022/10/15 11:01:59;;;;;;;7.83;5.70;;;22.00;1.00;;;;;;5018584;28;20482;-81
2022/10/15 11:04:36;;;;;;;7.87;5.20;;;22.10;1.00;;;;;;5016083;28;20411;-79
2022/10/15 11:07:16;;;;;;;7.60;5.37;;;22.00;1.00;;;;;;5016472;28;20430;-80
2022/10/15 11:10:07;;;;;;;9.23;6.80;;;21.70;1.00;;;;;;5016175;28;20446;-80
2022/10/15 11:13:00;;;;;;;8.63;5.47;;;21.40;1.00;;;;;;5018410;28;20497;-81
2022/10/15 11:15:59;;;;;;;10.10;6.90;;;21.30;1.00;;;;;;5005652;28;20494;-79
2022/10/15 11:18:57;;;;;;;9.73;6.63;;;21.40;1.00;;;;;;5021508;28;20465;-80
2022/10/15 11:21:47;;;;;;;12.30;6.90;;;21.40;1.00;;;;;;5022874;28;20442;-79
2022/10/15 11:24:37;;;;;;;9.20;6.60;;;21.40;1.00;;;;;;5024122;28;20430;-80
2022/10/15 11:27:20;;;;;;;11.30;6.13;;;21.30;1.00;;;;;;5021758;28;20458;-79
2022/10/15 11:30:08;;;;;;;8.93;6.20;;;21.40;1.00;;;;;;5020177;28;20471;-80
2022/10/15 11:32:45;;;;;;;9.87;7.30;;;21.60;1.00;;;;;;5015007;28;20460;-81
2022/10/15 11:35:30;;;;;;;9.40;6.77;;;21.80;1.00;;;;;;5015465;28;20425;-81
2022/10/15 11:38:11;;;;;;;8.50;6.37;;;21.90;1.00;;;;;;5010373;28;20453;-80
2022/10/15 11:40:47;;;;;;;8.70;6.30;;;22.20;1.00;;;;;;5014850;28;20506;-80
2022/10/15 11:43:28;;;;;;;7.77;5.50;;;22.40;1.00;;;;;;4986742;28;20461;-80
2022/10/15 11:46:01;;;;;;;7.97;5.23;;;22.90;1.00;;;;;;5004279;28;20477;-79
2022/10/15 11:48:49;;;;;;;7.23;4.93;;;23.40;1.00;;;;;;5007483;28;20462;-80
2022/10/15 11:51:24;;;;;;;8.50;5.80;;;24.10;1.00;;;;;;5011748;28;20434;-81
2022/10/15 11:54:09;;;;;;;8.63;5.40;;;24.40;1.00;;;;;;5005095;28;20453;-80
2022/10/15 11:56:39;;;;;;;7.03;5.03;;;24.30;1.00;;;;;;5010254;28;20470;-81
2022/10/15 11:59:30;;;;;;;8.37;6.00;;;23.90;1.00;;;;;;5012962;28;20422;-81
2022/10/15 12:02:01;;;;;;;7.57;5.00;;;23.70;1.00;;;;;;5009225;28;20462;-81
2022/10/15 12:04:36;;;;;;;7.50;4.60;;;23.50;1.00;;;;;;5015060;28;20892;-80
2022/10/15 12:07:06;;;;;;;7.50;4.57;;;23.40;1.00;;;;;;5010178;28;20508;-82
2022/10/15 12:09:39;;;;;;;7.30;4.63;;;24.00;1.00;;;;;;4993385;28;20978;-80
2022/10/15 12:12:12;;;;;;;6.63;4.07;;;24.60;1.00;;;;;;5011634;28;20493;-82
2022/10/15 12:14:44;;;;;;;6.93;4.27;;;24.40;1.00;;;;;;5009479;28;20459;-80
2022/10/15 12:17:21;;;;;;;7.30;4.60;;;23.90;1.00;;;;;;5011043;28;20476;-81
2022/10/15 12:19:54;;;;;;;6.50;4.20;;;23.30;1.00;;;;;;5012933;28;20488;-80
2022/10/15 12:22:36;;;;;;;7.67;4.57;;;22.70;1.00;;;;;;5011518;28;20476;-80
2022/10/15 12:25:04;;;;;;;7.40;4.50;;;22.20;1.00;;;;;;5014885;28;20836;-80
2022/10/15 12:27:37;;;;;;;7.30;4.40;;;21.80;1.00;;;;;;5003297;28;20462;-79
2022/10/15 12:30:21;;;;;;;9.97;4.50;;;21.50;1.00;;;;;;5013606;28;20415;-79
2022/10/15 12:32:48;;;;;;;7.03;4.40;;;21.40;1.00;;;;;;5012533;28;20486;-79
2022/10/15 12:35:23;;;;;;;7.60;4.40;;;21.50;1.00;;;;;;5015470;28;20430;-80
2022/10/15 12:37:51;;;;;;;8.00;4.30;;;21.30;1.00;;;;;;5012560;28;20421;-79
2022/10/15 12:40:28;;;;;;;7.90;4.20;;;21.20;1.00;;;;;;5013438;28;20537;-80
2022/10/15 12:42:58;;;;;;;6.90;4.53;;;21.00;1.00;;;;;;5009331;28;20466;-80
2022/10/15 12:45:30;;;;;;;7.30;4.10;;;20.90;1.00;;;;;;5012279;28;20452;-79
2022/10/15 12:48:18;;;;;;;9.10;4.10;;;20.70;1.00;;;;;;5008135;28;20430;-81
2022/10/15 12:51:38;;;;;;;7.50;4.00;;;20.30;1.00;;;;;;5011990;28;20528;-79
2022/10/15 12:54:34;;;;;;;8.43;4.70;;;19.90;1.00;;;;;;5013878;28;20454;-82
2022/10/15 12:57:03;;;;;;;8.27;4.37;;;19.80;1.00;;;;;;5010649;28;20454;-80
2022/10/15 12:59:46;;;;;;;9.37;5.53;;;19.80;1.00;;;;;;4994648;28;20438;-80
2022/10/15 13:02:34;;;;;;;7.60;4.23;;;19.90;1.00;;;;;;5009445;28;20487;-81
2022/10/15 13:05:02;;;;;;;11.43;5.60;;;20.20;1.00;;;;;;5014015;28;20471;-81
2022/10/15 13:07:34;;;;;;;9.07;4.80;;;20.40;1.00;;;;;;5012105;28;20467;-82
2022/10/15 13:10:03;;;;;;;7.30;4.40;;;20.40;1.00;;;;;;5013908;28;20460;-80
2022/10/15 13:12:30;;;;;;;8.57;5.23;;;20.60;1.00;;;;;;5014395;28;20465;-82
2022/10/15 13:15:02;;;;;;;7.87;4.70;;;20.70;1.00;;;;;;5011151;28;20530;-82